Latest Weather Observations for Meekatharra

IDW60801

Issued at 6:03 pm WST Tuesday 23 October 2018 (issued every 10 minutes, with the page automatically refreshed every 10 minutes)

About weather observations | Map of weather stations | Latest weather observations for WA | Other Formats
Station Details ID: 007045 Name: MEEKATHARRA AIRPORT Lat: -26.61 Lon: 118.54 Height: 517.0 m
Data from the previous 72 hours. | See also: Recent months at Meekatharra
Date/Time
WST
Temp
°C
App
Temp
°C
Dew
Point
°C
Rel
Hum
%
Delta-T
°C
Wind Press
QNH
hPa
Press
MSL
hPa
Rain since
9am
mm
Dir  Spd
km/h
Gust
km/h
Spd
kts
Gust
kts
23/06:00pm 30.6 26.1 -3.2 11 15.7 WNW 11 15 6 8 1012.2 1009.7 0.0
23/05:30pm 31.4 27.2 -3.8 10 16.3 W 9 20 5 11 1012.4 1009.8 0.0
23/05:00pm 31.5 26.6 -3.8 10 16.4 WSW 13 22 7 12 1012.1 1009.6 0.0
23/04:30pm 31.7 27.2 -3.6 10 16.4 W 11 17 6 9 1012.1 1009.6 0.0
23/04:00pm 32.4 27.5 -3.1 10 16.8 WSW 13 24 7 13 1012.1 1009.6 0.0
23/03:30pm 32.4 27.5 -3.1 10 16.8 W 13 20 7 11 1012.1 1009.6 0.0
23/03:00pm 31.6 27.2 -2.4 11 16.2 W 11 22 6 12 1012.5 1009.9 0.0
23/02:30pm 31.3 26.9 -2.6 11 16.0 WSW 11 20 6 11 1012.9 1010.4 0.0
23/02:00pm 31.7 26.2 -2.3 11 16.2 WNW 17 28 9 15 1013.2 1010.7 0.0
23/01:30pm 31.0 26.2 -2.9 11 15.9 NNW 13 19 7 10 1013.5 1011.0 0.0
23/01:00pm 30.6 26.6 -2.0 12 15.5 NNE 9 17 5 9 1013.8 1011.3 0.0
23/12:30pm 29.5 24.4 -1.8 13 14.8 WSW 15 22 8 12 1014.1 1011.6 0.0
23/12:00pm 29.5 25.6 -1.8 13 14.8 SSW 9 15 5 8 1014.7 1012.2 0.0
23/11:30am 29.2 25.4 -1.0 14 14.4 N 9 17 5 9 1015.1 1012.6 0.0
23/11:00am 28.8 24.5 -1.3 14 14.3 NW 11 17 6 9 1015.5 1013.0 0.0
23/10:30am 28.6 24.1 -0.5 15 14.0 N 13 17 7 9 1015.9 1013.4 0.0
23/10:00am 27.3 22.3 -4.6 12 14.1 E 13 22 7 12 1016.1 1013.7 0.0
23/09:30am 26.5 21.0 -5.2 12 13.8 ENE 15 24 8 13 1016.5 1014.0 0.0
23/09:00am 25.2 19.4 -5.1 13 13.0 ENE 17 28 9 15 1016.7 1014.2 0.0
23/08:30am 23.9 17.5 -5.2 14 12.4 E 20 30 11 16 1016.7 1014.2 0.0
23/08:00am 22.5 16.3 -4.5 16 11.5 E 19 24 10 13 1016.8 1014.3 0.0
23/07:30am 20.2 13.9 -4.1 19 10.2 E 20 26 11 14 1016.8 1014.3 0.0
23/07:00am 18.4 12.3 -3.7 22 9.2 ESE 19 26 10 14 1016.7 1014.2 0.0
23/06:30am 17.3 12.1 -2.9 25 8.4 SE 15 20 8 11 1016.7 1014.2 0.0
23/06:00am 16.0 11.1 -3.0 27 7.8 SE 13 19 7 10 1016.6 1014.1 0.0
23/05:30am 15.4 10.2 -3.0 28 7.5 SE 15 20 8 11 1016.1 1013.7 0.0
23/05:00am 15.6 10.4 -2.8 28 7.6 SE 15 20 8 11 1015.9 1013.4 0.0
23/04:30am 15.7 10.5 -2.7 28 7.6 SSE 15 20 8 11 1015.8 1013.3 0.0
23/04:00am 15.6 10.8 -2.8 28 7.6 SSE 13 15 7 8 1015.7 1013.2 0.0
23/03:30am 16.0 11.1 -3.0 27 7.8 SSE 13 17 7 9 1015.7 1013.2 0.0
23/03:00am 16.3 11.4 -3.7 25 8.1 S 13 15 7 8 1015.6 1013.1 0.0
23/02:30am 17.0 12.1 -3.7 24 8.5 S 13 15 7 8 1015.6 1013.1 0.0
23/02:00am 17.7 12.8 -3.7 23 8.8 S 13 20 7 11 1015.6 1013.1 0.0
23/01:30am 18.3 12.6 -3.8 22 9.2 S 17 22 9 12 1015.8 1013.3 0.0
23/01:00am 18.7 13.4 -3.4 22 9.3 S 15 19 8 10 1016.0 1013.6 0.0
23/12:30am 19.2 13.9 -3.6 21 9.6 S 15 19 8 10 1016.2 1013.8 0.0
23/12:00am 19.4 14.4 -4.1 20 9.8 S 13 15 7 8 1016.5 1014.0 0.0
 
Date/Time
WST
Temp
°C
App
Temp
°C
Dew
Point
°C
Rel
Hum
%
Delta-T
°C
Wind Press
QNH
hPa
Press
MSL
hPa
Rain since
9am
mm
Dir  Spd
km/h
Gust
km/h
Spd
kts
Gust
kts
22/11:30pm 20.2 14.8 -4.1 19 10.2 S 15 17 8 9 1016.7 1014.2 0.0
22/11:00pm 20.6 15.7 -3.8 19 10.3 S 13 15 7 8 1016.9 1014.4 0.0
22/10:30pm 21.3 16.0 -4.0 18 10.7 S 15 19 8 10 1017.0 1014.5 0.0
22/10:00pm 21.8 16.5 -3.5 18 10.9 S 15 19 8 10 1017.2 1014.7 0.0
22/09:30pm 22.5 16.9 -3.0 18 11.2 S 17 20 9 11 1017.2 1014.7 0.0
22/09:00pm 23.1 17.5 -2.5 18 11.4 S 17 24 9 13 1017.2 1014.7 0.0
22/08:30pm 23.6 18.2 -1.3 19 11.4 SSW 17 24 9 13 1017.0 1014.5 0.0
22/08:00pm 24.2 18.5 -0.9 19 11.6 SSW 19 26 10 14 1016.9 1014.4 0.0
22/07:30pm 24.8 19.9 1.7 22 11.2 SSW 17 26 9 14 1016.7 1014.2 0.0
22/07:00pm 25.3 21.1 3.9 25 10.9 SSW 15 20 8 11 1016.3 1013.9 0.0
22/06:30pm 25.9 21.1 4.4 25 11.1 SSW 19 24 10 13 1015.9 1013.4 0.0
22/06:00pm 26.5 21.6 4.3 24 11.4 SW 19 28 10 15 1015.7 1013.2 0.0
22/05:30pm 27.6 23.2 4.6 23 12.0 SW 17 24 9 13 1015.3 1012.8 0.0
22/05:00pm 27.8 22.9 4.2 22 12.2 SSW 19 26 10 14 1015.2 1012.7 0.0
22/04:30pm 27.5 23.8 4.5 23 12.0 WSW 13 26 7 14 1015.1 1012.6 0.0
22/04:00pm 28.7 25.0 4.2 21 12.8 SSW 13 24 7 13 1015.1 1012.6 0.0
22/03:30pm 28.3 25.4 4.6 22 12.4 W 9 20 5 11 1015.2 1012.7 0.0
22/03:00pm 28.2 24.9 4.5 22 12.4 W 11 26 6 14 1015.4 1012.9 0.0
22/02:30pm 28.0 24.5 3.7 21 12.5 WSW 11 17 6 9 1015.7 1013.2 0.0
22/02:00pm 27.4 23.6 3.8 22 12.1 SW 13 24 7 13 1016.1 1013.7 0.0
22/01:30pm 27.6 24.1 3.3 21 12.4 SSW 11 22 6 12 1016.6 1014.1 0.0
22/01:00pm 27.1 24.5 4.2 23 11.8 NE 7 17 4 9 1017.0 1014.5 0.0
22/12:30pm 26.2 22.9 4.6 25 11.2 WSW 11 22 6 12 1017.4 1014.9 0.0
22/12:00pm 25.6 22.9 5.8 28 10.4 NE 9 22 5 12 1017.8 1015.4 0.0
22/11:30am 24.8 21.8 6.1 30 9.9 S 11 17 6 9 1018.3 1015.9 0.0
22/11:00am 23.5 20.6 6.7 34 8.9 SSE 11 24 6 13 1018.8 1016.3 0.0
22/10:30am 23.2 20.1 7.3 36 8.5 SE 13 20 7 11 1019.2 1016.7 0.0
22/10:00am 22.3 18.9 7.7 39 7.8 SE 15 24 8 13 1019.4 1017.0 0.0
22/09:30am 21.7 17.7 8.2 42 7.3 SSE 19 26 10 14 1019.6 1017.2 0.0
22/09:00am 20.6 16.5 8.6 46 6.4 SSE 20 28 11 15 1019.8 1017.4 0.0
22/08:30am 19.6 15.1 8.6 49 5.9 SE 22 30 12 16 1019.6 1017.2 0.0
22/08:00am 18.7 13.5 8.7 52 5.3 SE 26 33 14 18 1019.4 1017.0 0.0
22/07:30am 18.0 12.7 8.6 54 5.0 SSE 26 37 14 20 1019.2 1016.7 0.0
22/07:00am 17.2 11.9 8.4 56 4.6 SSE 26 37 14 20 1018.9 1016.4 0.0
22/06:30am 16.7 12.1 8.1 57 4.5 SSE 22 30 12 16 1018.6 1016.1 0.0
22/06:00am 15.9 12.2 7.9 59 4.1 S 17 24 9 13 1018.2 1015.8 0.0
22/05:30am 15.3 11.4 7.3 59 4.1 S 17 20 9 11 1017.8 1015.4 0.0
22/05:00am 15.5 11.6 7.0 57 4.3 S 17 20 9 11 1017.4 1014.9 0.0
22/04:30am 16.1 12.1 6.8 54 4.7 S 17 24 9 13 1017.0 1014.5 0.0
22/04:00am 16.5 12.1 6.6 52 5.0 S 19 24 10 13 1016.9 1014.4 0.0
22/03:30am 16.8 12.3 6.3 50 5.3 S 19 22 10 12 1016.6 1014.1 0.0
22/03:00am 16.9 12.9 4.9 45 5.9 S 15 24 8 13 1016.3 1013.9 0.0
22/02:30am 17.2 12.5 3.1 39 6.7 SSW 17 20 9 11 1016.2 1013.8 0.0
22/02:00am 17.6 12.7 2.0 35 7.2 SSW 17 20 9 11 1016.0 1013.6 0.0
22/01:30am 18.4 12.9 1.9 33 7.7 SSW 20 28 11 15 1016.0 1013.6 0.0
22/01:00am 18.8 14.1 0.9 30 8.2 SSW 15 20 8 11 1016.1 1013.7 0.0
22/12:30am 18.7 13.8 -0.2 28 8.5 SSW 15 17 8 9 1016.3 1013.9 0.0
22/12:00am 19.0 14.9 0.1 28 8.5 SSW 11 13 6 7 1016.7 1014.2 0.0
 
Date/Time
WST
Temp
°C
App
Temp
°C
Dew
Point
°C
Rel
Hum
%
Delta-T
°C
Wind Press
QNH
hPa
Press
MSL
hPa
Rain since
9am
mm
Dir  Spd
km/h
Gust
km/h
Spd
kts
Gust
kts
21/11:30pm 18.2 14.7 -1.1 27 8.4 SSW 7 9 4 5 1016.8 1014.3 0.0
21/11:00pm 20.4 16.7 -0.3 25 9.4 SSW 9 11 5 6 1017.1 1014.6 0.0
21/10:30pm 21.3 17.2 -0.1 24 9.8 SSW 11 13 6 7 1017.3 1014.8 0.0
21/10:00pm 22.3 17.4 -0.4 22 10.4 SSW 15 19 8 10 1017.3 1014.8 0.0
21/09:30pm 23.1 18.1 -1.1 20 11.0 SSW 15 20 8 11 1017.1 1014.6 0.0
21/09:00pm 24.0 18.7 -0.3 20 11.3 SSW 17 24 9 13 1017.0 1014.5 0.0
21/08:30pm 24.6 18.9 -0.5 19 11.7 SW 19 24 10 13 1016.7 1014.2 0.0
21/08:00pm 25.4 19.2 -0.6 18 12.2 SW 22 30 12 16 1016.5 1014.0 0.0
21/07:30pm 26.0 19.3 -0.9 17 12.6 SW 24 32 13 17 1016.1 1013.7 0.0
21/07:00pm 26.8 20.9 -1.1 16 13.1 SW 20 28 11 15 1015.7 1013.2 0.0
21/06:30pm 27.4 21.0 -1.5 15 13.5 SSW 22 33 12 18 1015.3 1012.8 0.0
21/06:00pm 28.4 22.5 -2.6 13 14.3 SSW 19 28 10 15 1014.9 1012.4 0.0
21/05:30pm 28.9 22.9 -1.2 14 14.3 WSW 20 30 11 16 1014.8 1012.3 0.0
21/05:00pm 29.9 24.1 -1.5 13 15.0 WSW 19 33 10 18 1014.6 1012.1 0.0
21/04:30pm 30.3 24.4 -2.2 12 15.3 WSW 19 30 10 16 1014.5 1012.0 0.0
21/04:00pm 30.2 24.2 -1.2 13 15.1 W 20 35 11 19 1014.5 1012.0 0.0
21/03:30pm 30.8 24.9 -1.9 12 15.6 W 19 32 10 17 1014.6 1012.1 0.0
21/03:00pm 30.2 23.9 -1.2 13 15.1 WSW 22 39 12 21 1014.8 1012.3 0.0
21/02:30pm 30.8 25.2 0.2 14 15.1 WSW 19 32 10 17 1015.1 1012.6 0.0
21/02:00pm 30.0 24.3 -0.4 14 14.8 WSW 19 32 10 17 1015.4 1012.9 0.0
21/01:30pm 29.9 24.2 -0.5 14 14.7 WSW 19 28 10 15 1015.8 1013.3 0.0
21/01:00pm 30.5 25.5 -1.0 13 15.2 W 15 26 8 14 1016.0 1013.6 0.0
21/12:30pm 28.0 22.9 0.7 17 13.3 WSW 17 30 9 16 1016.5 1014.0 0.0
21/12:00pm 28.3 23.7 1.7 18 13.2 WSW 15 24 8 13 1017.0 1014.5 0.0
21/11:30am 26.8 22.6 4.0 23 11.7 SSW 15 26 8 14 1017.6 1015.1 0.0
21/11:00am 26.0 22.6 3.9 24 11.3 SSW 11 22 6 12 1018.1 1015.7 0.0
21/10:30am 25.3 21.9 6.0 29 10.2 S 13 20 7 11 1018.4 1016.0 0.0
21/10:00am 23.9 20.3 6.7 33 9.1 S 15 22 8 12 1018.9 1016.4 0.0
21/09:30am 22.5 18.4 6.3 35 8.5 S 17 26 9 14 1019.2 1016.7 0.0
21/09:00am 21.6 17.2 7.4 40 7.5 S 20 26 11 14 1019.4 1017.0 0.0
21/08:30am 20.1 15.7 7.5 44 6.6 S 20 26 11 14 1019.4 1017.0 0.0
21/08:00am 19.4 13.9 7.5 46 6.2 S 26 33 14 18 1019.2 1016.7 0.0
21/07:30am 18.4 13.3 7.5 49 5.7 S 24 33 13 18 1019.1 1016.6 0.0
21/07:00am 17.4 12.2 7.2 51 5.2 S 24 30 13 16 1018.8 1016.3 0.0
21/06:30am 16.7 12.4 6.8 52 5.0 S 19 26 10 14 1018.4 1016.0 0.0
21/06:00am 15.6 12.2 6.1 53 4.7 S 13 17 7 9 1017.9 1015.5 0.0
21/05:30am 15.3 11.9 5.8 53 4.7 S 13 17 7 9 1017.5 1015.0 0.0
21/05:00am 15.7 11.5 5.6 51 5.0 S 17 22 9 12 1017.2 1014.7 0.0
21/04:30am 15.5 10.7 2.7 42 5.9 S 17 20 9 11 1016.9 1014.4 0.0
21/04:00am 15.8 11.1 0.8 36 6.7 SSW 15 17 8 9 1016.8 1014.3 0.0
21/03:30am 16.4 11.5 -0.3 32 7.3 SSW 15 19 8 10 1016.6 1014.1 0.0
21/03:00am 16.9 11.8 -2.2 27 8.1 SSW 15 20 8 11 1016.2 1013.8 0.0
21/02:30am 17.3 11.6 -4.0 23 8.7 SSW 17 20 9 11 1016.1 1013.7 0.0
21/02:00am 17.7 12.3 -4.9 21 9.1 SSW 15 19 8 10 1015.9 1013.4 0.0
21/01:30am 17.9 13.2 -5.3 20 9.3 SSW 11 13 6 7 1015.9 1013.4 0.0
21/01:00am 18.3 13.6 -5.0 20 9.4 S 11 13 6 7 1015.8 1013.3 0.0
21/12:30am 20.0 14.5 -5.0 18 10.3 SSW 15 17 8 9 1016.0 1013.6 0.0
21/12:00am 20.6 15.5 -5.3 17 10.6 SSW 13 17 7 9 1016.3 1013.9 0.0
 
Date/Time
WST
Temp
°C
App
Temp
°C
Dew
Point
°C
Rel
Hum
%
Delta-T
°C
Wind Press
QNH
hPa
Press
MSL
hPa
Rain since
9am
mm
Dir  Spd
km/h
Gust
km/h
Spd
kts
Gust
kts
20/11:30pm 20.8 15.6 -5.9 16 10.9 SSW 13 15 7 8 1016.5 1014.0 0.0
20/11:00pm 20.8 15.6 -5.9 16 10.9 SSW 13 15 7 8 1016.8 1014.3 0.0
20/10:30pm 21.7 16.9 -6.0 15 11.3 SSW 11 13 6 7 1017.0 1014.5 0.0
20/10:00pm 23.4 18.3 -5.6 14 12.2 SW 13 17 7 9 1017.2 1014.7 0.0
20/09:30pm 21.8 17.3 -6.8 14 11.5 WSW 9 13 5 7 1017.5 1015.0 0.0
20/09:00pm 22.4 17.9 -6.4 14 11.8 SW 9 11 5 6 1017.4 1014.9 0.0
20/08:30pm 21.9 18.0 -6.8 14 11.6 SW 6 6 3 3 1017.4 1014.9 0.0
20/08:00pm 23.4 19.2 -7.6 12 12.5 SW 7 7 4 4 1017.2 1014.7 0.0
20/07:30pm 25.5 21.0 -7.1 11 13.6 SW 9 11 5 6 1016.9 1014.4 0.0
20/07:00pm 26.9 22.4 -7.2 10 14.3 SW 9 11 5 6 1016.6 1014.1 0.0
20/06:30pm 28.1 23.5 -7.7 9 15.1 WSW 9 15 5 8 1016.2 1013.8 0.0

Other Formats:

Comma delimited format used in spreadsheet applications
http://www.bom.gov.au/fwo/IDW60801/IDW60801.94430.axf

JavaScript Object Notation format (JSON) in row-major order
http://www.bom.gov.au/fwo/IDW60801/IDW60801.94430.json